createdAt,value
2019-03-08T00:01:25.195Z,8.40
2019-03-08T00:03:52.621Z,8.40
2019-03-08T00:06:20.422Z,8.40
2019-03-08T00:08:48.092Z,8.40
2019-03-08T00:11:15.539Z,8.40
2019-03-08T00:13:43.027Z,8.40
2019-03-08T00:16:10.501Z,8.40
2019-03-08T00:18:37.953Z,8.40
2019-03-08T00:21:05.479Z,8.40
2019-03-08T00:23:33.590Z,8.40
2019-03-08T00:26:01.054Z,8.40
2019-03-08T00:28:28.450Z,8.40
2019-03-08T00:30:56.185Z,8.40
2019-03-08T00:33:23.904Z,8.40
2019-03-08T00:35:51.296Z,8.40
2019-03-08T00:38:18.876Z,8.50
2019-03-08T00:40:46.395Z,8.50
2019-03-08T00:43:13.818Z,8.50
2019-03-08T00:45:41.289Z,8.50
2019-03-08T00:48:08.763Z,8.50
2019-03-08T00:50:36.229Z,8.50
2019-03-08T00:53:04.233Z,8.50
2019-03-08T00:55:31.699Z,8.40
2019-03-08T00:57:59.556Z,8.40
2019-03-08T01:00:26.980Z,8.40
2019-03-08T01:02:54.469Z,8.40
2019-03-08T01:05:22.234Z,8.30
2019-03-08T01:07:49.723Z,8.30
2019-03-08T01:10:17.836Z,8.30
2019-03-08T01:12:45.597Z,8.30
2019-03-08T01:15:14.559Z,8.20
2019-03-08T01:17:42.331Z,8.20
2019-03-08T01:20:11.013Z,8.10
2019-03-08T01:22:38.472Z,8.10
2019-03-08T01:25:06.398Z,8.10
2019-03-08T01:27:34.207Z,8.00
2019-03-08T01:30:02.180Z,8.00
2019-03-08T01:32:29.688Z,8.00
2019-03-08T01:34:57.124Z,7.90
2019-03-08T01:37:24.805Z,7.90
2019-03-08T01:39:52.487Z,7.90
2019-03-08T01:42:19.951Z,7.80
2019-03-08T01:44:47.533Z,7.80
2019-03-08T01:47:15.242Z,7.80
2019-03-08T01:49:42.689Z,7.70
2019-03-08T01:52:10.129Z,7.70
2019-03-08T01:54:37.864Z,7.70
2019-03-08T01:57:05.362Z,7.70
2019-03-08T01:59:33.376Z,7.60
2019-03-08T02:02:00.853Z,7.60
2019-03-08T02:04:28.243Z,7.60
2019-03-08T02:06:55.988Z,7.50
2019-03-08T02:09:23.430Z,7.50
2019-03-08T02:11:51.152Z,7.50
2019-03-08T02:14:18.687Z,7.50
2019-03-08T02:16:46.185Z,7.50
2019-03-08T02:19:13.889Z,7.40
2019-03-08T02:21:41.317Z,7.40
2019-03-08T02:24:08.706Z,7.40
2019-03-08T02:26:36.147Z,7.40
2019-03-08T02:29:03.937Z,7.40
2019-03-08T02:31:31.619Z,7.40
2019-03-08T02:33:59.269Z,7.40
2019-03-08T02:36:26.971Z,7.40
2019-03-08T02:38:54.412Z,7.40
2019-03-08T02:41:22.079Z,7.40
2019-03-08T02:43:49.839Z,7.40
2019-03-08T02:46:17.209Z,7.40
2019-03-08T02:48:44.967Z,7.30
2019-03-08T02:51:12.419Z,7.30
2019-03-08T02:53:39.881Z,7.30
2019-03-08T02:56:07.346Z,7.30
2019-03-08T02:58:34.887Z,7.30
2019-03-08T03:01:02.996Z,7.30
2019-03-08T03:03:30.639Z,7.30
2019-03-08T03:05:58.288Z,7.30
2019-03-08T03:08:26.205Z,7.30
2019-03-08T03:10:53.666Z,7.30
2019-03-08T03:13:21.126Z,7.40
2019-03-08T03:15:48.562Z,7.30
2019-03-08T03:18:16.290Z,7.40
2019-03-08T03:20:43.976Z,7.40
2019-03-08T03:23:11.446Z,7.30
2019-03-08T03:25:38.885Z,7.30
2019-03-08T03:28:06.321Z,7.30
2019-03-08T03:30:33.861Z,7.30
2019-03-08T03:33:01.318Z,7.30
2019-03-08T03:35:29.085Z,7.30
2019-03-08T03:37:56.426Z,7.30
2019-03-08T03:40:23.851Z,7.20
2019-03-08T03:42:51.326Z,7.20
2019-03-08T03:45:18.974Z,7.20
2019-03-08T03:47:46.801Z,7.20
2019-03-08T03:50:14.282Z,7.20
2019-03-08T03:52:41.726Z,7.20
2019-03-08T03:55:09.564Z,7.10
2019-03-08T03:57:37.284Z,7.10
2019-03-08T04:00:05.981Z,7.10
2019-03-08T04:02:33.457Z,7.10
2019-03-08T04:05:00.876Z,7.10
2019-03-08T04:07:28.666Z,7.10
2019-03-08T04:09:56.340Z,7.10
2019-03-08T04:12:23.855Z,7.10
2019-03-08T04:14:51.241Z,7.10
2019-03-08T04:17:19.084Z,7.00
2019-03-08T04:19:46.788Z,7.00
2019-03-08T04:22:14.374Z,7.00
2019-03-08T04:24:41.766Z,7.00
2019-03-08T04:27:09.178Z,7.00
2019-03-08T04:29:36.582Z,7.00
2019-03-08T04:32:04.428Z,7.00
2019-03-08T04:34:31.897Z,6.90
2019-03-08T04:36:59.406Z,6.90
2019-03-08T04:39:27.146Z,6.90
2019-03-08T04:41:54.570Z,6.90
2019-03-08T04:44:22.133Z,6.90
2019-03-08T04:46:49.999Z,6.90
2019-03-08T04:49:17.446Z,7.00
2019-03-08T04:51:45.327Z,6.90
2019-03-08T04:54:12.829Z,6.90
2019-03-08T04:56:40.484Z,6.90
2019-03-08T04:59:07.875Z,6.90
2019-03-08T05:01:35.531Z,6.90
2019-03-08T05:04:03.033Z,6.90
2019-03-08T05:06:30.802Z,6.80
2019-03-08T05:08:58.272Z,6.80
2019-03-08T05:11:25.748Z,6.80
2019-03-08T05:13:53.519Z,6.80
2019-03-08T05:16:21.066Z,6.80
2019-03-08T05:18:48.659Z,6.80
2019-03-08T05:21:16.126Z,6.80
2019-03-08T05:23:43.568Z,6.80
2019-03-08T05:26:11.593Z,6.80
2019-03-08T05:28:39.237Z,6.80
2019-03-08T05:31:06.721Z,6.80
2019-03-08T05:33:34.513Z,6.80
2019-03-08T05:36:02.019Z,6.90
2019-03-08T05:38:29.489Z,6.80
2019-03-08T05:40:57.290Z,6.90
2019-03-08T05:43:25.069Z,6.80
2019-03-08T05:45:53.427Z,6.90
2019-03-08T05:48:22.121Z,6.90
2019-03-08T05:50:49.742Z,6.90
2019-03-08T05:53:20.332Z,6.90
2019-03-08T05:55:47.780Z,7.00
2019-03-08T05:58:15.234Z,7.00
2019-03-08T06:00:43.128Z,7.00
2019-03-08T06:03:10.841Z,7.10
2019-03-08T06:05:38.589Z,7.00
2019-03-08T06:08:06.321Z,7.00
2019-03-08T06:10:35.086Z,7.10
2019-03-08T06:13:03.740Z,7.10
2019-03-08T06:15:31.131Z,7.10
2019-03-08T06:17:59.161Z,7.10
2019-03-08T06:20:26.591Z,7.00
2019-03-08T06:22:54.232Z,7.00
2019-03-08T06:25:21.763Z,7.00
2019-03-08T06:27:49.233Z,7.00
2019-03-08T06:30:16.974Z,7.00
2019-03-08T06:32:44.736Z,7.00
2019-03-08T06:35:12.683Z,7.00
2019-03-08T06:37:40.171Z,6.90
2019-03-08T06:40:07.581Z,6.90
2019-03-08T06:42:35.138Z,6.90
2019-03-08T06:45:02.662Z,6.90
2019-03-08T06:47:30.207Z,6.90
2019-03-08T06:49:57.728Z,6.90
2019-03-08T06:52:25.192Z,6.90
2019-03-08T06:54:52.678Z,6.90
2019-03-08T06:57:20.567Z,6.90
2019-03-08T07:00:01.215Z,6.90
2019-03-08T07:02:30.205Z,6.90
2019-03-08T07:04:57.870Z,6.90
2019-03-08T07:07:25.711Z,6.90
2019-03-08T07:09:53.362Z,6.90
2019-03-08T07:12:21.031Z,6.90
2019-03-08T07:14:48.795Z,6.90
2019-03-08T07:17:16.214Z,6.90
2019-03-08T07:19:53.206Z,6.90
2019-03-08T07:22:40.516Z,6.90
2019-03-08T07:25:27.929Z,7.00
2019-03-08T07:28:11.081Z,7.00
2019-03-08T07:31:10.133Z,7.00
2019-03-08T07:33:52.935Z,7.10
2019-03-08T07:36:24.773Z,7.10
2019-03-08T07:39:14.426Z,7.20
2019-03-08T07:41:48.706Z,7.20
2019-03-08T07:44:48.096Z,7.30
2019-03-08T07:47:38.387Z,7.30
2019-03-08T07:50:25.733Z,7.40
2019-03-08T07:53:19.238Z,7.50
2019-03-08T07:55:56.059Z,7.60
2019-03-08T07:58:35.300Z,7.80
2019-03-08T08:01:24.755Z,7.90
2019-03-08T08:04:23.845Z,7.90
2019-03-08T08:07:10.875Z,8.00
2019-03-08T08:10:07.176Z,8.10
2019-03-08T08:12:52.596Z,8.20
2019-03-08T08:15:28.326Z,8.30
2019-03-08T08:18:21.684Z,8.30
2019-03-08T08:21:11.574Z,8.40
2019-03-08T08:24:07.406Z,8.50
2019-03-08T08:29:35.526Z,8.60
2019-03-08T08:32:38.638Z,8.60
2019-03-08T08:35:13.482Z,8.60
2019-03-08T08:38:00.628Z,8.50
2019-03-08T08:40:46.486Z,8.60
2019-03-08T08:43:19.846Z,8.70
2019-03-08T08:46:09.626Z,8.80
2019-03-08T08:48:55.257Z,8.90
2019-03-08T08:51:51.367Z,9.00
2019-03-08T08:54:32.926Z,8.90
2019-03-08T08:57:18.447Z,8.80
2019-03-08T09:00:12.004Z,8.60
2019-03-08T09:02:52.483Z,8.40
2019-03-08T09:05:56.424Z,8.40
2019-03-08T09:08:58.096Z,8.30
2019-03-08T09:11:43.693Z,8.20
2019-03-08T09:14:08.386Z,8.10
2019-03-08T09:17:07.502Z,8.00
2019-03-08T09:19:59.251Z,8.00
2019-03-08T09:22:43.075Z,7.80
2019-03-08T09:25:24.673Z,7.80
2019-03-08T09:27:59.347Z,7.80
2019-03-08T09:30:50.945Z,7.80
2019-03-08T09:33:55.680Z,7.70
2019-03-08T09:36:30.301Z,7.70
2019-03-08T09:39:16.221Z,7.60
2019-03-08T09:42:01.634Z,7.60
2019-03-08T09:44:37.569Z,7.50
2019-03-08T09:47:20.620Z,7.50
2019-03-08T09:50:06.477Z,7.50
2019-03-08T09:52:48.955Z,7.50
2019-03-08T09:55:34.514Z,7.60
2019-03-08T09:58:07.075Z,7.70
2019-03-08T10:00:54.093Z,7.80
2019-03-08T10:03:46.485Z,7.90
2019-03-08T10:06:39.110Z,8.00
2019-03-08T10:09:26.823Z,8.00
2019-03-08T10:12:13.903Z,8.00
2019-03-08T10:14:49.799Z,8.10
2019-03-08T10:17:52.142Z,8.10
2019-03-08T10:20:40.162Z,8.10
2019-03-08T10:23:33.539Z,8.10
2019-03-08T10:26:23.298Z,8.10
2019-03-08T10:29:15.801Z,8.10
2019-03-08T10:32:05.367Z,8.20
2019-03-08T10:34:54.282Z,8.20
2019-03-08T10:37:33.754Z,8.30
2019-03-08T10:40:26.587Z,8.30
2019-03-08T10:43:05.688Z,8.30
2019-03-08T10:45:55.622Z,8.30
2019-03-08T10:48:42.731Z,8.30
2019-03-08T10:51:47.832Z,8.40
2019-03-08T10:54:21.796Z,8.40
2019-03-08T10:57:27.112Z,8.50
2019-03-08T11:00:08.221Z,8.60
2019-03-08T11:02:49.278Z,8.70
2019-03-08T11:05:23.148Z,8.60
2019-03-08T11:07:58.536Z,8.50
2019-03-08T11:10:43.557Z,8.40
2019-03-08T11:13:42.957Z,8.40
2019-03-08T11:16:25.021Z,8.40
2019-03-08T11:19:10.791Z,8.40
2019-03-08T11:22:07.042Z,8.20
2019-03-08T11:25:08.381Z,8.10
2019-03-08T11:28:20.750Z,7.90
2019-03-08T11:30:54.125Z,7.90
2019-03-08T11:33:38.027Z,7.90
2019-03-08T11:36:12.359Z,7.90
2019-03-08T11:39:08.341Z,8.00
2019-03-08T11:41:55.629Z,8.00
2019-03-08T11:44:48.950Z,8.10
2019-03-08T11:47:30.123Z,8.60
2019-03-08T11:50:16.109Z,9.10
2019-03-08T11:52:56.337Z,9.30
2019-03-08T11:55:43.579Z,9.70
2019-03-08T11:58:36.608Z,9.70
2019-03-08T12:01:25.371Z,9.60
2019-03-08T12:04:11.295Z,9.40
2019-03-08T12:06:56.537Z,9.30
2019-03-08T12:09:36.902Z,9.20
2019-03-08T12:12:39.482Z,9.10
2019-03-08T12:15:31.804Z,9.20
2019-03-08T12:18:22.397Z,9.30
2019-03-08T12:21:08.199Z,9.50
2019-03-08T12:23:44.979Z,9.70
2019-03-08T12:26:30.544Z,9.70
2019-03-08T12:29:17.519Z,9.60
2019-03-08T12:32:07.287Z,9.60
2019-03-08T12:34:45.923Z,9.70
2019-03-08T12:37:33.123Z,9.60
2019-03-08T12:40:20.364Z,9.70
2019-03-08T12:43:11.598Z,9.70
2019-03-08T12:45:57.496Z,9.60
2019-03-08T12:48:43.649Z,9.60
2019-03-08T12:51:37.020Z,9.50
2019-03-08T12:54:26.619Z,9.50
2019-03-08T12:57:13.554Z,9.40
2019-03-08T12:59:59.526Z,9.40
2019-03-08T13:02:48.978Z,9.40
2019-03-08T13:05:37.657Z,9.30
2019-03-08T13:08:27.681Z,9.30
2019-03-08T13:11:14.851Z,9.30
2019-03-08T13:13:42.482Z,9.30
2019-03-08T13:16:10.173Z,9.40
2019-03-08T13:18:37.639Z,9.40
2019-03-08T13:21:05.327Z,9.40
2019-03-08T13:23:32.809Z,9.40
2019-03-08T13:26:00.211Z,9.30
2019-03-08T13:28:27.939Z,9.30
2019-03-08T13:30:56.150Z,9.30
2019-03-08T13:33:23.780Z,9.40
2019-03-08T13:35:55.790Z,9.40
2019-03-08T13:38:23.367Z,9.50
2019-03-08T13:40:51.125Z,9.60
2019-03-08T13:43:20.831Z,9.70
2019-03-08T13:45:48.544Z,9.70
2019-03-08T13:48:16.391Z,9.80
2019-03-08T13:50:44.058Z,9.80
2019-03-08T13:53:11.815Z,9.70
2019-03-08T13:55:39.244Z,9.70
2019-03-08T13:58:06.979Z,9.60
2019-03-08T14:00:35.019Z,9.60
2019-03-08T14:03:02.987Z,9.60
2019-03-08T14:05:30.528Z,9.70
2019-03-08T14:07:57.937Z,9.70
2019-03-08T14:10:25.977Z,9.80
2019-03-08T14:12:53.479Z,9.90
2019-03-08T14:15:21.157Z,10.00
2019-03-08T14:17:48.625Z,10.30
2019-03-08T14:20:42.782Z,10.50
2019-03-08T14:23:13.611Z,10.70
2019-03-08T14:25:41.489Z,10.80
2019-03-08T14:28:09.635Z,11.10
2019-03-08T14:30:44.307Z,11.10
2019-03-08T14:33:12.372Z,11.00
2019-03-08T14:35:40.835Z,11.10
2019-03-08T14:38:08.376Z,11.40
2019-03-08T14:41:10.881Z,11.50
2019-03-08T14:44:01.118Z,11.40
2019-03-08T14:46:33.339Z,11.20
2019-03-08T14:49:00.855Z,11.00
2019-03-08T14:51:28.341Z,10.90
2019-03-08T14:53:55.907Z,10.80
2019-03-08T14:56:23.392Z,10.70
2019-03-08T14:58:51.548Z,10.60
2019-03-08T15:01:19.226Z,10.40
2019-03-08T15:03:47.268Z,10.40
2019-03-08T15:06:14.919Z,10.40
2019-03-08T15:08:42.534Z,10.40
2019-03-08T15:11:10.447Z,10.70
2019-03-08T15:13:39.876Z,10.60
2019-03-08T15:16:07.633Z,10.70
2019-03-08T15:18:35.092Z,10.60
2019-03-08T15:21:02.928Z,10.50
2019-03-08T15:23:30.579Z,10.30
2019-03-08T15:25:58.265Z,10.20
2019-03-08T15:28:26.515Z,10.10
2019-03-08T15:30:54.011Z,10.10
2019-03-08T15:33:21.475Z,10.00
2019-03-08T15:35:48.880Z,9.70
2019-03-08T15:38:16.368Z,9.30
2019-03-08T15:40:44.051Z,8.90
2019-03-08T15:43:13.579Z,9.00
2019-03-08T15:45:44.646Z,9.10
2019-03-08T15:48:10.909Z,9.20
2019-03-08T15:50:42.857Z,9.30
2019-03-08T15:53:09.046Z,9.40
2019-03-08T15:55:36.491Z,9.50
2019-03-08T15:58:04.160Z,9.60
2019-03-08T16:00:31.748Z,9.50
2019-03-08T16:02:59.185Z,9.40
2019-03-08T16:05:30.018Z,9.40
2019-03-08T16:08:01.841Z,9.30
2019-03-08T16:10:27.302Z,9.30
2019-03-08T16:12:54.766Z,9.30
2019-03-08T16:15:22.470Z,9.30
2019-03-08T16:17:50.201Z,9.20
2019-03-08T16:20:17.944Z,9.20
2019-03-08T16:22:45.419Z,9.20
2019-03-08T16:25:13.351Z,9.20
2019-03-08T16:27:41.082Z,9.20
2019-03-08T16:30:21.868Z,9.20
2019-03-08T16:33:11.646Z,9.20
2019-03-08T16:36:04.294Z,9.20
2019-03-08T16:38:49.759Z,9.10
2019-03-08T16:41:39.817Z,9.00
2019-03-08T16:44:25.835Z,8.80
2019-03-08T16:47:12.426Z,8.80
2019-03-08T16:50:02.531Z,8.60
2019-03-08T16:52:54.575Z,8.50
2019-03-08T16:55:49.767Z,8.50
2019-03-08T16:58:24.306Z,8.40
2019-03-08T17:01:13.698Z,8.40
2019-03-08T17:04:01.132Z,8.40
2019-03-08T17:06:44.478Z,8.30
2019-03-08T17:09:28.104Z,8.30
2019-03-08T17:12:08.760Z,8.30
2019-03-08T17:14:58.775Z,8.20
2019-03-08T17:17:39.182Z,8.20
2019-03-08T17:20:18.497Z,8.20
2019-03-08T17:23:04.086Z,8.10
2019-03-08T17:25:47.314Z,8.10
2019-03-08T17:28:40.294Z,8.10
2019-03-08T17:31:42.539Z,8.00
2019-03-08T17:34:38.556Z,8.00
2019-03-08T17:37:25.718Z,7.90
2019-03-08T17:40:22.220Z,7.80
2019-03-08T17:43:07.600Z,7.80
2019-03-08T17:45:54.681Z,7.80
2019-03-08T17:48:31.708Z,7.80
2019-03-08T17:51:27.957Z,7.70
2019-03-08T17:54:13.353Z,7.70
2019-03-08T17:56:59.241Z,7.70
2019-03-08T17:59:36.074Z,7.60
2019-03-08T18:02:15.921Z,7.60
2019-03-08T18:05:09.008Z,7.60
2019-03-08T18:07:54.035Z,7.60
2019-03-08T18:10:59.327Z,7.60
2019-03-08T18:13:42.444Z,7.60
2019-03-08T18:16:17.745Z,7.50
2019-03-08T18:19:04.958Z,7.50
2019-03-08T18:21:37.988Z,7.50
2019-03-08T18:24:23.304Z,7.50
2019-03-08T18:27:10.306Z,7.60
2019-03-08T18:30:00.629Z,7.50
2019-03-08T18:33:06.237Z,7.50
2019-03-08T18:35:52.223Z,7.50
2019-03-08T18:38:37.489Z,7.60
2019-03-08T18:41:10.355Z,7.50
2019-03-08T18:43:45.852Z,7.50
2019-03-08T18:46:20.654Z,7.50
2019-03-08T18:49:07.610Z,7.50
2019-03-08T18:51:57.202Z,7.60
2019-03-08T18:54:47.480Z,7.60
2019-03-08T18:57:34.868Z,7.60
2019-03-08T19:00:24.863Z,7.70
2019-03-08T19:03:10.549Z,7.70
2019-03-08T19:06:12.566Z,7.80
2019-03-08T19:08:47.835Z,7.90
2019-03-08T19:11:41.078Z,7.90
2019-03-08T19:14:22.638Z,8.00
2019-03-08T19:16:56.118Z,8.10
2019-03-08T19:19:31.109Z,8.10
2019-03-08T19:22:13.477Z,8.20
2019-03-08T19:24:47.480Z,8.20
2019-03-08T19:27:31.171Z,8.20
2019-03-08T19:30:08.738Z,8.30
2019-03-08T19:33:13.909Z,8.40
2019-03-08T19:35:59.371Z,8.40
2019-03-08T19:38:55.098Z,8.50
2019-03-08T19:41:31.336Z,8.50
2019-03-08T19:44:09.813Z,8.50
2019-03-08T19:47:06.261Z,8.50
2019-03-08T19:49:46.985Z,8.50
2019-03-08T19:52:32.828Z,8.50
2019-03-08T19:55:15.862Z,8.60
2019-03-08T19:57:59.073Z,8.60
2019-03-08T20:00:49.690Z,8.60
2019-03-08T20:03:32.354Z,8.60
2019-03-08T20:06:17.744Z,8.60
2019-03-08T20:09:01.622Z,8.50
2019-03-08T20:11:39.756Z,8.50
2019-03-08T20:14:26.643Z,8.50
2019-03-08T20:17:19.695Z,8.50
2019-03-08T20:20:13.251Z,8.40
2019-03-08T20:23:09.052Z,8.50
2019-03-08T20:26:05.101Z,8.40
2019-03-08T20:28:43.112Z,8.50
2019-03-08T20:31:28.993Z,8.40
2019-03-08T20:34:28.088Z,8.40
2019-03-08T20:37:21.187Z,8.40
2019-03-08T20:39:59.374Z,8.40
2019-03-08T20:42:35.548Z,8.40
2019-03-08T20:45:07.845Z,8.40
2019-03-08T20:47:36.032Z,8.40
2019-03-08T20:50:04.920Z,8.40
2019-03-08T20:52:32.884Z,8.40
2019-03-08T20:55:00.548Z,8.40
2019-03-08T20:57:29.776Z,8.40
2019-03-08T21:00:00.361Z,8.40
2019-03-08T21:02:28.885Z,8.40
2019-03-08T21:04:56.650Z,8.40
2019-03-08T21:07:27.137Z,8.40
2019-03-08T21:09:54.713Z,8.40
2019-03-08T21:12:22.814Z,8.40
2019-03-08T21:14:50.464Z,8.40
2019-03-08T21:17:18.615Z,8.40
2019-03-08T21:19:46.431Z,8.40
2019-03-08T21:22:15.243Z,8.40
2019-03-08T21:24:44.464Z,8.40
2019-03-08T21:27:12.056Z,8.40
2019-03-08T21:29:43.513Z,8.40
2019-03-08T21:32:12.747Z,8.40
2019-03-08T21:34:43.224Z,8.40
2019-03-08T21:37:11.109Z,8.40
2019-03-08T21:39:39.197Z,8.40
2019-03-08T21:42:06.667Z,8.40
2019-03-08T21:44:36.197Z,8.40
2019-03-08T21:47:05.085Z,8.40
2019-03-08T21:49:32.935Z,8.40
2019-03-08T21:52:00.834Z,8.40
2019-03-08T21:54:28.597Z,8.50
2019-03-08T21:56:56.139Z,8.40
2019-03-08T21:59:24.088Z,8.40
2019-03-08T22:01:52.814Z,8.40
2019-03-08T22:04:49.138Z,8.40
2019-03-08T22:07:17.174Z,8.40
2019-03-08T22:09:52.406Z,8.40
2019-03-08T22:12:20.587Z,8.40
2019-03-08T22:14:48.472Z,8.30
2019-03-08T22:17:16.145Z,8.30
2019-03-08T22:19:43.787Z,8.30
2019-03-08T22:22:11.598Z,8.30
2019-03-08T22:24:39.040Z,8.40
2019-03-08T22:27:09.258Z,8.40
2019-03-08T22:29:36.986Z,8.40
2019-03-08T22:32:04.561Z,8.40
2019-03-08T22:34:32.027Z,8.40
2019-03-08T22:36:59.691Z,8.40
2019-03-08T22:39:27.102Z,8.40
2019-03-08T22:41:54.543Z,8.40
2019-03-08T22:44:21.943Z,8.40
2019-03-08T22:46:52.360Z,8.40
2019-03-08T22:49:20.237Z,8.30
2019-03-08T22:51:47.700Z,8.40
2019-03-08T22:54:15.138Z,8.40
2019-03-08T22:56:43.015Z,8.40
2019-03-08T22:59:10.400Z,8.40
2019-03-08T23:01:45.768Z,8.40
2019-03-08T23:04:13.257Z,8.40
2019-03-08T23:06:40.787Z,8.40
2019-03-08T23:09:09.662Z,8.40
2019-03-08T23:11:37.054Z,8.40
2019-03-08T23:14:04.718Z,8.40
2019-03-08T23:16:32.879Z,8.40
2019-03-08T23:19:00.497Z,8.40
2019-03-08T23:21:28.024Z,8.40
2019-03-08T23:23:56.363Z,8.40
2019-03-08T23:26:24.093Z,8.40
2019-03-08T23:29:20.482Z,8.40
2019-03-08T23:31:55.599Z,8.50
2019-03-08T23:34:23.034Z,8.40
2019-03-08T23:36:50.760Z,8.50
2019-03-08T23:39:18.675Z,8.50
2019-03-08T23:41:46.078Z,8.50
2019-03-08T23:44:13.530Z,8.50
2019-03-08T23:46:40.968Z,8.50
2019-03-08T23:49:08.432Z,8.50
2019-03-08T23:51:35.905Z,8.50
2019-03-08T23:54:03.843Z,8.50
2019-03-08T23:56:31.583Z,8.50
2019-03-08T23:58:59.259Z,8.50
